sensor_id;sensor_type;location;lat;lon;timestamp;P1;durP1;ratioP1;P2;durP2;ratioP2
11135;SDS011;5622;50.840;4.948;2022-10-16T00:00:37;1.53;;;1.37;;
11135;SDS011;5622;50.840;4.948;2022-10-16T00:06:30;5.53;;;1.40;;
11135;SDS011;5622;50.840;4.948;2022-10-16T00:08:57;1.80;;;1.50;;
11135;SDS011;5622;50.840;4.948;2022-10-16T00:11:25;1.40;;;1.30;;
11135;SDS011;5622;50.840;4.948;2022-10-16T00:13:55;3.10;;;1.40;;
11135;SDS011;5622;50.840;4.948;2022-10-16T00:16:24;1.13;;;1.13;;
11135;SDS011;5622;50.840;4.948;2022-10-16T00:18:52;3.73;;;1.63;;
11135;SDS011;5622;50.840;4.948;2022-10-16T00:21:21;2.90;;;1.40;;
11135;SDS011;5622;50.840;4.948;2022-10-16T00:23:53;4.43;;;1.43;;
11135;SDS011;5622;50.840;4.948;2022-10-16T00:26:20;1.87;;;1.60;;
11135;SDS011;5622;50.840;4.948;2022-10-16T00:28:48;2.77;;;1.40;;
11135;SDS011;5622;50.840;4.948;2022-10-16T00:31:17;1.20;;;1.20;;
11135;SDS011;5622;50.840;4.948;2022-10-16T00:33:45;1.50;;;1.40;;
11135;SDS011;5622;50.840;4.948;2022-10-16T00:36:14;1.70;;;1.60;;
11135;SDS011;5622;50.840;4.948;2022-10-16T00:38:42;1.50;;;1.37;;
11135;SDS011;5622;50.840;4.948;2022-10-16T00:41:12;1.57;;;1.47;;
11135;SDS011;5622;50.840;4.948;2022-10-16T00:43:41;1.60;;;1.50;;
11135;SDS011;5622;50.840;4.948;2022-10-16T00:46:11;1.80;;;1.70;;
11135;SDS011;5622;50.840;4.948;2022-10-16T00:48:42;2.87;;;1.50;;
11135;SDS011;5622;50.840;4.948;2022-10-16T00:51:11;1.57;;;1.40;;
11135;SDS011;5622;50.840;4.948;2022-10-16T00:53:38;2.03;;;1.27;;
11135;SDS011;5622;50.840;4.948;2022-10-16T00:56:06;3.70;;;1.37;;
11135;SDS011;5622;50.840;4.948;2022-10-16T00:58:34;2.97;;;1.47;;
11135;SDS011;5622;50.840;4.948;2022-10-16T01:01:01;1.50;;;1.33;;
11135;SDS011;5622;50.840;4.948;2022-10-16T01:06:34;1.60;;;1.50;;
11135;SDS011;5622;50.840;4.948;2022-10-16T01:09:11;2.60;;;1.50;;
11135;SDS011;5622;50.840;4.948;2022-10-16T01:11:44;1.47;;;1.37;;
11135;SDS011;5622;50.840;4.948;2022-10-16T01:14:21;2.10;;;1.40;;
11135;SDS011;5622;50.840;4.948;2022-10-16T01:16:53;3.03;;;1.63;;
11135;SDS011;5622;50.840;4.948;2022-10-16T01:19:29;2.30;;;1.77;;
11135;SDS011;5622;50.840;4.948;2022-10-16T01:22:06;1.60;;;1.50;;
11135;SDS011;5622;50.840;4.948;2022-10-16T01:24:37;1.60;;;1.50;;
11135;SDS011;5622;50.840;4.948;2022-10-16T01:27:13;2.23;;;1.60;;
11135;SDS011;5622;50.840;4.948;2022-10-16T01:29:46;4.47;;;1.53;;
11135;SDS011;5622;50.840;4.948;2022-10-16T01:32:19;3.37;;;1.60;;
11135;SDS011;5622;50.840;4.948;2022-10-16T01:34:52;4.00;;;1.87;;
11135;SDS011;5622;50.840;4.948;2022-10-16T01:37:26;4.27;;;1.80;;
11135;SDS011;5622;50.840;4.948;2022-10-16T01:39:59;2.83;;;1.80;;
11135;SDS011;5622;50.840;4.948;2022-10-16T01:42:31;2.10;;;1.77;;
11135;SDS011;5622;50.840;4.948;2022-10-16T01:45:01;1.90;;;1.50;;
11135;SDS011;5622;50.840;4.948;2022-10-16T01:47:31;1.57;;;1.37;;
11135;SDS011;5622;50.840;4.948;2022-10-16T01:49:59;4.60;;;2.10;;
11135;SDS011;5622;50.840;4.948;2022-10-16T01:52:30;2.90;;;1.90;;
11135;SDS011;5622;50.840;4.948;2022-10-16T01:55:00;3.33;;;1.77;;
11135;SDS011;5622;50.840;4.948;2022-10-16T01:57:31;3.23;;;2.00;;
11135;SDS011;5622;50.840;4.948;2022-10-16T02:00:03;2.87;;;1.80;;
11135;SDS011;5622;50.840;4.948;2022-10-16T02:02:33;3.30;;;2.10;;
11135;SDS011;5622;50.840;4.948;2022-10-16T02:05:02;3.80;;;1.60;;
11135;SDS011;5622;50.840;4.948;2022-10-16T02:07:35;3.53;;;1.83;;
11135;SDS011;5622;50.840;4.948;2022-10-16T02:10:02;1.90;;;1.60;;
11135;SDS011;5622;50.840;4.948;2022-10-16T02:12:32;4.20;;;1.80;;
11135;SDS011;5622;50.840;4.948;2022-10-16T02:15:02;5.73;;;1.73;;
11135;SDS011;5622;50.840;4.948;2022-10-16T02:17:30;2.10;;;1.73;;
11135;SDS011;5622;50.840;4.948;2022-10-16T02:19:57;2.00;;;1.70;;
11135;SDS011;5622;50.840;4.948;2022-10-16T02:22:26;1.80;;;1.70;;
11135;SDS011;5622;50.840;4.948;2022-10-16T02:24:57;2.67;;;1.77;;
11135;SDS011;5622;50.840;4.948;2022-10-16T02:27:30;3.87;;;1.50;;
11135;SDS011;5622;50.840;4.948;2022-10-16T02:30:05;2.33;;;2.13;;
11135;SDS011;5622;50.840;4.948;2022-10-16T02:32:37;2.73;;;1.60;;
11135;SDS011;5622;50.840;4.948;2022-10-16T02:35:06;2.90;;;1.73;;
11135;SDS011;5622;50.840;4.948;2022-10-16T02:37:34;3.13;;;1.90;;
11135;SDS011;5622;50.840;4.948;2022-10-16T02:40:03;2.20;;;1.87;;
11135;SDS011;5622;50.840;4.948;2022-10-16T02:42:33;1.40;;;1.30;;
11135;SDS011;5622;50.840;4.948;2022-10-16T02:45:03;2.60;;;2.10;;
11135;SDS011;5622;50.840;4.948;2022-10-16T02:47:31;1.70;;;1.60;;
11135;SDS011;5622;50.840;4.948;2022-10-16T02:49:58;1.77;;;1.50;;
11135;SDS011;5622;50.840;4.948;2022-10-16T02:52:25;1.30;;;1.20;;
11135;SDS011;5622;50.840;4.948;2022-10-16T02:54:52;1.80;;;1.70;;
11135;SDS011;5622;50.840;4.948;2022-10-16T02:57:19;1.70;;;1.60;;
11135;SDS011;5622;50.840;4.948;2022-10-16T02:59:48;1.70;;;1.60;;
11135;SDS011;5622;50.840;4.948;2022-10-16T03:02:15;3.57;;;1.77;;
11135;SDS011;5622;50.840;4.948;2022-10-16T03:04:42;1.83;;;1.70;;
11135;SDS011;5622;50.840;4.948;2022-10-16T03:07:09;2.90;;;1.70;;
11135;SDS011;5622;50.840;4.948;2022-10-16T03:09:36;2.83;;;1.50;;
11135;SDS011;5622;50.840;4.948;2022-10-16T03:12:04;1.50;;;1.40;;
11135;SDS011;5622;50.840;4.948;2022-10-16T03:14:31;2.07;;;1.60;;
11135;SDS011;5622;50.840;4.948;2022-10-16T03:17:00;1.63;;;1.53;;
11135;SDS011;5622;50.840;4.948;2022-10-16T03:19:27;1.90;;;1.70;;
11135;SDS011;5622;50.840;4.948;2022-10-16T03:21:54;1.70;;;1.60;;
11135;SDS011;5622;50.840;4.948;2022-10-16T03:24:21;3.23;;;1.50;;
11135;SDS011;5622;50.840;4.948;2022-10-16T03:26:48;2.20;;;1.70;;
11135;SDS011;5622;50.840;4.948;2022-10-16T03:29:15;1.90;;;1.70;;
11135;SDS011;5622;50.840;4.948;2022-10-16T03:31:42;6.87;;;1.67;;
11135;SDS011;5622;50.840;4.948;2022-10-16T03:34:11;1.90;;;1.77;;
11135;SDS011;5622;50.840;4.948;2022-10-16T03:36:38;3.43;;;1.50;;
11135;SDS011;5622;50.840;4.948;2022-10-16T03:39:05;1.80;;;1.67;;
11135;SDS011;5622;50.840;4.948;2022-10-16T03:41:32;2.83;;;2.07;;
11135;SDS011;5622;50.840;4.948;2022-10-16T03:43:59;2.93;;;1.80;;
11135;SDS011;5622;50.840;4.948;2022-10-16T03:46:26;1.73;;;1.63;;
11135;SDS011;5622;50.840;4.948;2022-10-16T03:48:53;1.70;;;1.60;;
11135;SDS011;5622;50.840;4.948;2022-10-16T03:51:21;3.90;;;1.80;;
11135;SDS011;5622;50.840;4.948;2022-10-16T03:53:49;1.93;;;1.83;;
11135;SDS011;5622;50.840;4.948;2022-10-16T03:56:16;4.07;;;2.00;;
11135;SDS011;5622;50.840;4.948;2022-10-16T03:58:43;2.40;;;2.20;;
11135;SDS011;5622;50.840;4.948;2022-10-16T04:01:10;2.37;;;1.90;;
11135;SDS011;5622;50.840;4.948;2022-10-16T04:03:37;1.87;;;1.77;;
11135;SDS011;5622;50.840;4.948;2022-10-16T04:06:04;3.10;;;1.93;;
11135;SDS011;5622;50.840;4.948;2022-10-16T04:08:33;3.70;;;2.03;;
11135;SDS011;5622;50.840;4.948;2022-10-16T04:11:01;1.90;;;1.80;;
11135;SDS011;5622;50.840;4.948;2022-10-16T04:13:29;1.93;;;1.83;;
11135;SDS011;5622;50.840;4.948;2022-10-16T04:15:56;2.90;;;1.80;;
11135;SDS011;5622;50.840;4.948;2022-10-16T04:18:23;1.80;;;1.70;;
11135;SDS011;5622;50.840;4.948;2022-10-16T04:20:52;2.07;;;1.80;;
11135;SDS011;5622;50.840;4.948;2022-10-16T04:23:19;3.20;;;1.70;;
11135;SDS011;5622;50.840;4.948;2022-10-16T04:25:49;2.90;;;2.53;;
11135;SDS011;5622;50.840;4.948;2022-10-16T04:28:17;2.30;;;2.10;;
11135;SDS011;5622;50.840;4.948;2022-10-16T04:30:44;3.03;;;2.13;;
11135;SDS011;5622;50.840;4.948;2022-10-16T04:33:11;4.23;;;2.00;;
11135;SDS011;5622;50.840;4.948;2022-10-16T04:35:39;2.50;;;2.00;;
11135;SDS011;5622;50.840;4.948;2022-10-16T04:38:06;2.07;;;1.83;;
11135;SDS011;5622;50.840;4.948;2022-10-16T04:40:33;2.23;;;2.00;;
11135;SDS011;5622;50.840;4.948;2022-10-16T04:43:02;3.17;;;2.00;;
11135;SDS011;5622;50.840;4.948;2022-10-16T04:45:30;2.13;;;1.90;;
11135;SDS011;5622;50.840;4.948;2022-10-16T04:47:57;2.53;;;2.20;;
11135;SDS011;5622;50.840;4.948;2022-10-16T04:50:25;2.47;;;2.13;;
11135;SDS011;5622;50.840;4.948;2022-10-16T04:52:52;4.67;;;2.20;;
11135;SDS011;5622;50.840;4.948;2022-10-16T04:55:19;5.50;;;2.27;;
11135;SDS011;5622;50.840;4.948;2022-10-16T04:57:46;2.20;;;2.10;;
11135;SDS011;5622;50.840;4.948;2022-10-16T05:00:15;3.83;;;2.40;;
11135;SDS011;5622;50.840;4.948;2022-10-16T05:02:42;3.53;;;2.60;;
11135;SDS011;5622;50.840;4.948;2022-10-16T05:05:09;4.70;;;2.23;;
11135;SDS011;5622;50.840;4.948;2022-10-16T05:07:36;2.63;;;2.43;;
11135;SDS011;5622;50.840;4.948;2022-10-16T05:10:04;2.50;;;2.30;;
11135;SDS011;5622;50.840;4.948;2022-10-16T05:12:31;2.53;;;2.00;;
11135;SDS011;5622;50.840;4.948;2022-10-16T05:14:58;3.50;;;2.60;;
11135;SDS011;5622;50.840;4.948;2022-10-16T05:17:27;2.70;;;2.50;;
11135;SDS011;5622;50.840;4.948;2022-10-16T05:19:54;2.70;;;2.50;;
11135;SDS011;5622;50.840;4.948;2022-10-16T05:22:21;3.03;;;2.73;;
11135;SDS011;5622;50.840;4.948;2022-10-16T05:24:48;5.97;;;2.70;;
11135;SDS011;5622;50.840;4.948;2022-10-16T05:27:15;4.27;;;2.40;;
11135;SDS011;5622;50.840;4.948;2022-10-16T05:29:45;3.23;;;2.50;;
11135;SDS011;5622;50.840;4.948;2022-10-16T05:32:12;2.67;;;2.47;;
11135;SDS011;5622;50.840;4.948;2022-10-16T05:34:41;2.87;;;2.57;;
11135;SDS011;5622;50.840;4.948;2022-10-16T05:37:09;4.77;;;2.53;;
11135;SDS011;5622;50.840;4.948;2022-10-16T05:39:36;2.60;;;2.40;;
11135;SDS011;5622;50.840;4.948;2022-10-16T05:42:03;4.47;;;2.37;;
11135;SDS011;5622;50.840;4.948;2022-10-16T05:44:31;2.50;;;2.30;;
11135;SDS011;5622;50.840;4.948;2022-10-16T05:46:58;3.30;;;2.47;;
11135;SDS011;5622;50.840;4.948;2022-10-16T05:49:26;3.00;;;2.70;;
11135;SDS011;5622;50.840;4.948;2022-10-16T05:51:55;3.93;;;2.50;;
11135;SDS011;5622;50.840;4.948;2022-10-16T05:54:22;4.37;;;2.80;;
11135;SDS011;5622;50.840;4.948;2022-10-16T05:56:49;4.90;;;2.73;;
11135;SDS011;5622;50.840;4.948;2022-10-16T05:59:16;4.93;;;2.70;;
11135;SDS011;5622;50.840;4.948;2022-10-16T06:01:43;2.60;;;2.40;;
11135;SDS011;5622;50.840;4.948;2022-10-16T06:04:10;3.70;;;2.80;;
11135;SDS011;5622;50.840;4.948;2022-10-16T06:06:37;3.80;;;2.40;;
11135;SDS011;5622;50.840;4.948;2022-10-16T06:09:09;2.70;;;2.43;;
11135;SDS011;5622;50.840;4.948;2022-10-16T06:11:36;3.97;;;2.67;;
11135;SDS011;5622;50.840;4.948;2022-10-16T06:14:03;2.30;;;2.10;;
11135;SDS011;5622;50.840;4.948;2022-10-16T06:16:32;3.30;;;2.70;;
11135;SDS011;5622;50.840;4.948;2022-10-16T06:19:00;4.73;;;3.10;;
11135;SDS011;5622;50.840;4.948;2022-10-16T06:21:29;3.17;;;2.60;;
11135;SDS011;5622;50.840;4.948;2022-10-16T06:23:56;4.33;;;2.70;;
11135;SDS011;5622;50.840;4.948;2022-10-16T06:26:26;3.47;;;2.53;;
11135;SDS011;5622;50.840;4.948;2022-10-16T06:28:55;3.43;;;3.00;;
11135;SDS011;5622;50.840;4.948;2022-10-16T06:31:23;3.30;;;2.90;;
11135;SDS011;5622;50.840;4.948;2022-10-16T06:33:52;3.23;;;2.80;;
11135;SDS011;5622;50.840;4.948;2022-10-16T06:36:21;3.13;;;2.60;;
11135;SDS011;5622;50.840;4.948;2022-10-16T06:38:49;3.13;;;2.50;;
11135;SDS011;5622;50.840;4.948;2022-10-16T06:41:16;3.17;;;2.87;;
11135;SDS011;5622;50.840;4.948;2022-10-16T06:43:46;2.97;;;2.60;;
11135;SDS011;5622;50.840;4.948;2022-10-16T06:46:14;2.60;;;2.40;;
11135;SDS011;5622;50.840;4.948;2022-10-16T06:48:42;3.40;;;2.67;;
11135;SDS011;5622;50.840;4.948;2022-10-16T06:51:10;2.60;;;2.40;;
11135;SDS011;5622;50.840;4.948;2022-10-16T06:53:38;7.93;;;2.73;;
11135;SDS011;5622;50.840;4.948;2022-10-16T06:56:07;3.00;;;2.63;;
11135;SDS011;5622;50.840;4.948;2022-10-16T06:58:34;4.57;;;2.70;;
11135;SDS011;5622;50.840;4.948;2022-10-16T07:01:04;4.63;;;2.90;;
11135;SDS011;5622;50.840;4.948;2022-10-16T07:03:31;4.87;;;3.70;;
11135;SDS011;5622;50.840;4.948;2022-10-16T07:06:01;5.63;;;5.07;;
11135;SDS011;5622;50.840;4.948;2022-10-16T07:08:30;7.10;;;4.00;;
11135;SDS011;5622;50.840;4.948;2022-10-16T07:10:59;4.40;;;4.00;;
11135;SDS011;5622;50.840;4.948;2022-10-16T07:13:26;5.13;;;4.43;;
11135;SDS011;5622;50.840;4.948;2022-10-16T07:15:54;4.43;;;3.70;;
11135;SDS011;5622;50.840;4.948;2022-10-16T07:18:22;5.03;;;3.93;;
11135;SDS011;5622;50.840;4.948;2022-10-16T07:20:52;4.73;;;3.60;;
11135;SDS011;5622;50.840;4.948;2022-10-16T07:23:19;5.30;;;3.80;;
11135;SDS011;5622;50.840;4.948;2022-10-16T07:25:52;5.07;;;4.63;;
11135;SDS011;5622;50.840;4.948;2022-10-16T07:28:20;6.27;;;3.90;;
11135;SDS011;5622;50.840;4.948;2022-10-16T07:30:50;7.13;;;6.43;;
11135;SDS011;5622;50.840;4.948;2022-10-16T07:33:17;7.20;;;4.20;;
11135;SDS011;5622;50.840;4.948;2022-10-16T07:35:49;9.70;;;5.40;;
11135;SDS011;5622;50.840;4.948;2022-10-16T07:38:16;6.33;;;5.63;;
11135;SDS011;5622;50.840;4.948;2022-10-16T07:40:44;9.53;;;8.63;;
11135;SDS011;5622;50.840;4.948;2022-10-16T07:43:11;9.50;;;8.50;;
11135;SDS011;5622;50.840;4.948;2022-10-16T07:45:46;9.07;;;8.17;;
11135;SDS011;5622;50.840;4.948;2022-10-16T07:48:14;6.27;;;5.17;;
11135;SDS011;5622;50.840;4.948;2022-10-16T07:50:41;10.57;;;6.80;;
11135;SDS011;5622;50.840;4.948;2022-10-16T07:53:10;22.20;;;15.97;;
11135;SDS011;5622;50.840;4.948;2022-10-16T07:55:38;50.00;;;37.87;;
11135;SDS011;5622;50.840;4.948;2022-10-16T07:58:05;8.80;;;7.60;;
11135;SDS011;5622;50.840;4.948;2022-10-16T08:00:32;8.20;;;5.80;;
11135;SDS011;5622;50.840;4.948;2022-10-16T08:03:00;11.43;;;9.67;;
11135;SDS011;5622;50.840;4.948;2022-10-16T08:05:27;7.33;;;5.83;;
11135;SDS011;5622;50.840;4.948;2022-10-16T08:07:54;7.63;;;6.40;;
11135;SDS011;5622;50.840;4.948;2022-10-16T08:10:24;5.47;;;4.70;;
11135;SDS011;5622;50.840;4.948;2022-10-16T08:12:52;4.17;;;3.50;;
11135;SDS011;5622;50.840;4.948;2022-10-16T08:15:20;6.07;;;3.70;;
11135;SDS011;5622;50.840;4.948;2022-10-16T08:17:53;5.63;;;4.67;;
11135;SDS011;5622;50.840;4.948;2022-10-16T08:20:22;8.23;;;4.50;;
11135;SDS011;5622;50.840;4.948;2022-10-16T08:22:49;7.50;;;4.30;;
11135;SDS011;5622;50.840;4.948;2022-10-16T08:25:16;5.43;;;3.40;;
11135;SDS011;5622;50.840;4.948;2022-10-16T08:27:44;6.50;;;3.73;;
11135;SDS011;5622;50.840;4.948;2022-10-16T08:30:12;5.00;;;4.03;;
11135;SDS011;5622;50.840;4.948;2022-10-16T08:32:39;5.63;;;3.13;;
11135;SDS011;5622;50.840;4.948;2022-10-16T08:35:07;6.80;;;3.87;;
11135;SDS011;5622;50.840;4.948;2022-10-16T08:37:35;37.10;;;19.03;;
11135;SDS011;5622;50.840;4.948;2022-10-16T08:40:03;9.03;;;6.70;;
11135;SDS011;5622;50.840;4.948;2022-10-16T08:42:42;9.43;;;6.63;;
11135;SDS011;5622;50.840;4.948;2022-10-16T08:45:30;9.10;;;7.37;;
11135;SDS011;5622;50.840;4.948;2022-10-16T08:48:08;7.63;;;5.53;;
11135;SDS011;5622;50.840;4.948;2022-10-16T08:50:41;8.37;;;6.20;;
11135;SDS011;5622;50.840;4.948;2022-10-16T08:53:10;10.23;;;6.27;;
11135;SDS011;5622;50.840;4.948;2022-10-16T08:55:43;6.60;;;3.87;;
11135;SDS011;5622;50.840;4.948;2022-10-16T08:58:15;8.93;;;4.83;;
11135;SDS011;5622;50.840;4.948;2022-10-16T09:00:44;7.77;;;4.23;;
11135;SDS011;5622;50.840;4.948;2022-10-16T09:03:16;4.47;;;2.63;;
11135;SDS011;5622;50.840;4.948;2022-10-16T09:05:52;4.87;;;3.20;;
11135;SDS011;5622;50.840;4.948;2022-10-16T09:08:34;4.60;;;3.90;;
11135;SDS011;5622;50.840;4.948;2022-10-16T09:11:12;4.70;;;3.00;;
11135;SDS011;5622;50.840;4.948;2022-10-16T09:13:50;5.13;;;2.57;;
11135;SDS011;5622;50.840;4.948;2022-10-16T09:16:22;3.70;;;2.73;;
11135;SDS011;5622;50.840;4.948;2022-10-16T09:18:54;6.33;;;3.53;;
11135;SDS011;5622;50.840;4.948;2022-10-16T09:21:28;3.47;;;2.13;;
11135;SDS011;5622;50.840;4.948;2022-10-16T09:23:57;3.83;;;2.03;;
11135;SDS011;5622;50.840;4.948;2022-10-16T09:26:26;6.30;;;2.37;;
11135;SDS011;5622;50.840;4.948;2022-10-16T09:28:54;2.67;;;1.83;;
11135;SDS011;5622;50.840;4.948;2022-10-16T09:31:22;3.90;;;2.43;;
11135;SDS011;5622;50.840;4.948;2022-10-16T09:33:51;5.40;;;2.50;;
11135;SDS011;5622;50.840;4.948;2022-10-16T09:36:21;4.20;;;2.27;;
11135;SDS011;5622;50.840;4.948;2022-10-16T09:39:01;3.83;;;2.00;;
11135;SDS011;5622;50.840;4.948;2022-10-16T09:41:30;6.30;;;2.23;;
11135;SDS011;5622;50.840;4.948;2022-10-16T09:44:02;2.70;;;1.70;;
11135;SDS011;5622;50.840;4.948;2022-10-16T09:46:33;4.77;;;1.80;;
11135;SDS011;5622;50.840;4.948;2022-10-16T09:49:01;1.70;;;1.60;;
11135;SDS011;5622;50.840;4.948;2022-10-16T09:51:31;4.87;;;3.23;;
11135;SDS011;5622;50.840;4.948;2022-10-16T09:54:01;7.70;;;6.13;;
11135;SDS011;5622;50.840;4.948;2022-10-16T09:56:38;21.03;;;15.93;;
11135;SDS011;5622;50.840;4.948;2022-10-16T09:59:11;43.63;;;30.20;;
11135;SDS011;5622;50.840;4.948;2022-10-16T10:01:39;36.83;;;23.40;;
11135;SDS011;5622;50.840;4.948;2022-10-16T10:04:09;11.20;;;7.40;;
11135;SDS011;5622;50.840;4.948;2022-10-16T10:06:37;7.57;;;5.97;;
11135;SDS011;5622;50.840;4.948;2022-10-16T10:09:19;7.83;;;3.43;;
11135;SDS011;5622;50.840;4.948;2022-10-16T10:11:48;7.53;;;3.50;;
11135;SDS011;5622;50.840;4.948;2022-10-16T10:14:23;6.47;;;3.20;;
11135;SDS011;5622;50.840;4.948;2022-10-16T10:16:52;6.00;;;3.60;;
11135;SDS011;5622;50.840;4.948;2022-10-16T10:19:28;6.63;;;3.03;;
11135;SDS011;5622;50.840;4.948;2022-10-16T10:21:55;5.00;;;2.40;;
11135;SDS011;5622;50.840;4.948;2022-10-16T10:24:22;5.40;;;2.77;;
11135;SDS011;5622;50.840;4.948;2022-10-16T10:26:51;5.97;;;2.40;;
11135;SDS011;5622;50.840;4.948;2022-10-16T10:29:30;4.23;;;2.60;;
11135;SDS011;5622;50.840;4.948;2022-10-16T10:32:08;4.37;;;2.03;;
11135;SDS011;5622;50.840;4.948;2022-10-16T10:34:49;3.77;;;1.90;;
11135;SDS011;5622;50.840;4.948;2022-10-16T10:37:28;2.87;;;1.47;;
11135;SDS011;5622;50.840;4.948;2022-10-16T10:40:05;4.73;;;2.47;;
11135;SDS011;5622;50.840;4.948;2022-10-16T10:42:43;3.20;;;1.93;;
11135;SDS011;5622;50.840;4.948;2022-10-16T10:45:18;2.37;;;1.90;;
11135;SDS011;5622;50.840;4.948;2022-10-16T10:50:41;4.20;;;2.50;;
11135;SDS011;5622;50.840;4.948;2022-10-16T10:53:18;6.63;;;2.43;;
11135;SDS011;5622;50.840;4.948;2022-10-16T10:55:52;2.10;;;1.90;;
11135;SDS011;5622;50.840;4.948;2022-10-16T10:58:31;4.97;;;1.50;;
11135;SDS011;5622;50.840;4.948;2022-10-16T11:01:19;4.57;;;1.60;;
11135;SDS011;5622;50.840;4.948;2022-10-16T11:04:00;3.63;;;2.30;;
11135;SDS011;5622;50.840;4.948;2022-10-16T11:06:42;2.47;;;1.70;;
11135;SDS011;5622;50.840;4.948;2022-10-16T11:09:12;5.43;;;1.53;;
11135;SDS011;5622;50.840;4.948;2022-10-16T11:11:43;2.57;;;1.30;;
11135;SDS011;5622;50.840;4.948;2022-10-16T11:14:15;4.90;;;1.80;;
11135;SDS011;5622;50.840;4.948;2022-10-16T11:16:48;4.73;;;2.13;;
11135;SDS011;5622;50.840;4.948;2022-10-16T11:19:22;2.23;;;1.47;;
11135;SDS011;5622;50.840;4.948;2022-10-16T11:22:00;6.47;;;1.80;;
11135;SDS011;5622;50.840;4.948;2022-10-16T11:24:34;3.67;;;2.00;;
11135;SDS011;5622;50.840;4.948;2022-10-16T11:27:08;3.87;;;1.40;;
11135;SDS011;5622;50.840;4.948;2022-10-16T11:29:40;2.70;;;1.40;;
11135;SDS011;5622;50.840;4.948;2022-10-16T11:32:17;3.13;;;2.47;;
11135;SDS011;5622;50.840;4.948;2022-10-16T11:34:49;4.10;;;1.80;;
11135;SDS011;5622;50.840;4.948;2022-10-16T11:37:20;3.80;;;1.60;;
11135;SDS011;5622;50.840;4.948;2022-10-16T11:39:52;2.97;;;1.40;;
11135;SDS011;5622;50.840;4.948;2022-10-16T11:42:25;3.93;;;1.80;;
11135;SDS011;5622;50.840;4.948;2022-10-16T11:45:00;3.53;;;1.50;;
11135;SDS011;5622;50.840;4.948;2022-10-16T11:47:36;5.40;;;1.87;;
11135;SDS011;5622;50.840;4.948;2022-10-16T11:50:13;3.00;;;2.33;;
11135;SDS011;5622;50.840;4.948;2022-10-16T11:52:51;4.47;;;1.27;;
11135;SDS011;5622;50.840;4.948;2022-10-16T11:55:23;2.17;;;1.30;;
11135;SDS011;5622;50.840;4.948;2022-10-16T11:57:57;4.27;;;1.43;;
11135;SDS011;5622;50.840;4.948;2022-10-16T12:00:28;3.00;;;1.23;;
11135;SDS011;5622;50.840;4.948;2022-10-16T12:03:03;2.00;;;1.80;;
11135;SDS011;5622;50.840;4.948;2022-10-16T12:05:44;2.23;;;1.50;;
11135;SDS011;5622;50.840;4.948;2022-10-16T12:08:22;3.63;;;1.40;;
11135;SDS011;5622;50.840;4.948;2022-10-16T12:10:49;5.63;;;1.40;;
11135;SDS011;5622;50.840;4.948;2022-10-16T12:13:32;2.47;;;1.40;;
11135;SDS011;5622;50.840;4.948;2022-10-16T12:16:04;4.40;;;1.63;;
11135;SDS011;5622;50.840;4.948;2022-10-16T12:19:03;2.27;;;1.60;;
11135;SDS011;5622;50.840;4.948;2022-10-16T12:21:39;3.30;;;1.80;;
11135;SDS011;5622;50.840;4.948;2022-10-16T12:24:18;5.23;;;1.80;;
11135;SDS011;5622;50.840;4.948;2022-10-16T12:26:56;3.37;;;1.70;;
11135;SDS011;5622;50.840;4.948;2022-10-16T12:29:28;3.87;;;1.57;;
11135;SDS011;5622;50.840;4.948;2022-10-16T12:38:16;2.80;;;1.60;;
11135;SDS011;5622;50.840;4.948;2022-10-16T12:40:45;3.67;;;1.63;;
11135;SDS011;5622;50.840;4.948;2022-10-16T12:43:25;2.20;;;1.60;;
11135;SDS011;5622;50.840;4.948;2022-10-16T12:48:49;3.63;;;2.03;;
11135;SDS011;5622;50.840;4.948;2022-10-16T12:51:23;4.00;;;1.70;;
11135;SDS011;5622;50.840;4.948;2022-10-16T12:53:58;3.43;;;1.43;;
11135;SDS011;5622;50.840;4.948;2022-10-16T12:56:28;4.63;;;2.00;;
11135;SDS011;5622;50.840;4.948;2022-10-16T12:59:06;3.87;;;1.50;;
11135;SDS011;5622;50.840;4.948;2022-10-16T13:01:48;4.17;;;1.40;;
11135;SDS011;5622;50.840;4.948;2022-10-16T13:04:40;2.40;;;1.50;;
11135;SDS011;5622;50.840;4.948;2022-10-16T13:07:24;2.73;;;1.30;;
11135;SDS011;5622;50.840;4.948;2022-10-16T13:10:09;2.67;;;1.60;;
11135;SDS011;5622;50.840;4.948;2022-10-16T13:12:51;4.73;;;1.80;;
11135;SDS011;5622;50.840;4.948;2022-10-16T13:15:32;2.97;;;1.40;;
11135;SDS011;5622;50.840;4.948;2022-10-16T13:18:10;1.40;;;1.30;;
11135;SDS011;5622;50.840;4.948;2022-10-16T13:20:50;2.73;;;1.37;;
11135;SDS011;5622;50.840;4.948;2022-10-16T13:23:27;2.93;;;1.37;;
11135;SDS011;5622;50.840;4.948;2022-10-16T13:26:09;1.73;;;1.60;;
11135;SDS011;5622;50.840;4.948;2022-10-16T13:28:43;5.27;;;3.27;;
11135;SDS011;5622;50.840;4.948;2022-10-16T13:31:13;3.20;;;2.20;;
11135;SDS011;5622;50.840;4.948;2022-10-16T13:33:45;2.10;;;1.80;;
11135;SDS011;5622;50.840;4.948;2022-10-16T13:36:19;3.27;;;1.33;;
11135;SDS011;5622;50.840;4.948;2022-10-16T13:38:50;2.77;;;1.43;;
11135;SDS011;5622;50.840;4.948;2022-10-16T13:41:27;2.73;;;1.47;;
11135;SDS011;5622;50.840;4.948;2022-10-16T13:43:54;2.97;;;1.47;;
11135;SDS011;5622;50.840;4.948;2022-10-16T13:46:24;3.67;;;1.53;;
11135;SDS011;5622;50.840;4.948;2022-10-16T13:48:58;6.23;;;2.73;;
11135;SDS011;5622;50.840;4.948;2022-10-16T13:51:26;10.67;;;5.17;;
11135;SDS011;5622;50.840;4.948;2022-10-16T13:53:56;7.47;;;4.47;;
11135;SDS011;5622;50.840;4.948;2022-10-16T13:56:25;6.23;;;3.97;;
11135;SDS011;5622;50.840;4.948;2022-10-16T13:58:59;5.83;;;3.03;;
11135;SDS011;5622;50.840;4.948;2022-10-16T14:01:28;3.43;;;2.90;;
11135;SDS011;5622;50.840;4.948;2022-10-16T14:04:00;4.67;;;3.10;;
11135;SDS011;5622;50.840;4.948;2022-10-16T14:06:29;5.40;;;3.30;;
11135;SDS011;5622;50.840;4.948;2022-10-16T14:08:59;3.43;;;2.20;;
11135;SDS011;5622;50.840;4.948;2022-10-16T14:11:31;3.97;;;2.30;;
11135;SDS011;5622;50.840;4.948;2022-10-16T14:13:59;2.20;;;1.40;;
11135;SDS011;5622;50.840;4.948;2022-10-16T14:16:28;2.83;;;1.60;;
11135;SDS011;5622;50.840;4.948;2022-10-16T14:18:58;2.07;;;1.87;;
11135;SDS011;5622;50.840;4.948;2022-10-16T14:21:27;5.57;;;2.33;;
11135;SDS011;5622;50.840;4.948;2022-10-16T14:23:55;2.43;;;2.20;;
11135;SDS011;5622;50.840;4.948;2022-10-16T14:26:31;2.23;;;1.97;;
11135;SDS011;5622;50.840;4.948;2022-10-16T14:30:03;3.97;;;2.00;;
11135;SDS011;5622;50.840;4.948;2022-10-16T14:33:19;2.63;;;1.70;;
11135;SDS011;5622;50.840;4.948;2022-10-16T14:35:57;2.57;;;1.57;;
11135;SDS011;5622;50.840;4.948;2022-10-16T14:38:41;5.03;;;1.50;;
11135;SDS011;5622;50.840;4.948;2022-10-16T14:41:15;5.33;;;1.30;;
11135;SDS011;5622;50.840;4.948;2022-10-16T14:43:49;2.10;;;1.23;;
11135;SDS011;5622;50.840;4.948;2022-10-16T14:46:19;4.00;;;1.50;;
11135;SDS011;5622;50.840;4.948;2022-10-16T14:48:53;2.77;;;1.40;;
11135;SDS011;5622;50.840;4.948;2022-10-16T14:51:25;2.47;;;1.40;;
11135;SDS011;5622;50.840;4.948;2022-10-16T14:53:53;1.30;;;1.07;;
11135;SDS011;5622;50.840;4.948;2022-10-16T14:56:21;1.73;;;1.20;;
11135;SDS011;5622;50.840;4.948;2022-10-16T14:58:50;2.70;;;1.33;;
11135;SDS011;5622;50.840;4.948;2022-10-16T15:01:17;2.43;;;1.57;;
11135;SDS011;5622;50.840;4.948;2022-10-16T15:03:45;2.33;;;1.40;;
11135;SDS011;5622;50.840;4.948;2022-10-16T15:06:14;3.20;;;1.50;;
11135;SDS011;5622;50.840;4.948;2022-10-16T15:08:42;2.40;;;1.37;;
11135;SDS011;5622;50.840;4.948;2022-10-16T15:11:09;2.90;;;1.70;;
11135;SDS011;5622;50.840;4.948;2022-10-16T15:13:38;2.23;;;1.30;;
11135;SDS011;5622;50.840;4.948;2022-10-16T15:16:07;2.30;;;1.40;;
11135;SDS011;5622;50.840;4.948;2022-10-16T15:18:37;1.67;;;1.30;;
11135;SDS011;5622;50.840;4.948;2022-10-16T15:21:04;2.20;;;1.20;;
11135;SDS011;5622;50.840;4.948;2022-10-16T15:23:33;2.03;;;1.30;;
11135;SDS011;5622;50.840;4.948;2022-10-16T15:26:00;1.67;;;1.10;;
11135;SDS011;5622;50.840;4.948;2022-10-16T15:28:27;2.73;;;1.30;;
11135;SDS011;5622;50.840;4.948;2022-10-16T15:30:55;1.30;;;1.20;;
11135;SDS011;5622;50.840;4.948;2022-10-16T15:33:24;2.00;;;1.40;;
11135;SDS011;5622;50.840;4.948;2022-10-16T15:35:55;3.20;;;1.53;;
11135;SDS011;5622;50.840;4.948;2022-10-16T15:38:22;3.07;;;1.50;;
11135;SDS011;5622;50.840;4.948;2022-10-16T15:40:51;2.07;;;1.30;;